Time;durP1;ratioP1;P1;durP2;ratioP2;P2;SDS_P1;SDS_P2;PMS_P1;PMS_P2;Temp;Humidity;BMP_temperature;BMP_pressure;BME280_temperature;BME280_humidity;BME280_pressure;Samples;Min_cycle;Max_cycle;Signal;HPM_P1;HPM_P2
2022/07/01 00:00:42;;;;;;;8.38;2.65;;;15.60;99.90;;;;;;5014570;28;20052;-84
2022/07/01 00:03:08;;;;;;;7.70;2.30;;;15.60;99.90;;;;;;5014846;28;20064;-84
2022/07/01 00:05:33;;;;;;;6.95;2.10;;;15.60;99.90;;;;;;5014728;28;20114;-83
2022/07/01 00:07:59;;;;;;;5.05;1.90;;;15.60;99.90;;;;;;4998547;28;20049;-84
2022/07/01 00:10:25;;;;;;;6.75;2.22;;;15.60;99.90;;;;;;5014368;28;20513;-84
2022/07/01 00:12:50;;;;;;;6.05;1.77;;;15.60;99.90;;;;;;5015153;28;20072;-84
2022/07/01 00:15:16;;;;;;;6.50;1.60;;;15.60;99.90;;;;;;5014673;28;20513;-83
2022/07/01 00:17:43;;;;;;;7.32;2.13;;;15.60;99.90;;;;;;4998277;28;20102;-83
2022/07/01 00:20:09;;;;;;;6.80;1.90;;;15.60;99.90;;;;;;4997972;28;20128;-83
2022/07/01 00:22:35;;;;;;;7.65;1.92;;;15.60;99.90;;;;;;5014208;28;20083;-84
2022/07/01 00:25:01;;;;;;;6.75;1.98;;;15.60;99.90;;;;;;5014433;28;20058;-84
2022/07/01 00:27:26;;;;;;;7.28;2.20;;;15.60;99.90;;;;;;4997234;28;20076;-84
2022/07/01 00:29:52;;;;;;;8.57;2.15;;;15.60;99.90;;;;;;5014137;28;20041;-84
2022/07/01 00:32:18;;;;;;;6.15;2.00;;;15.60;99.90;;;;;;5014354;28;20042;-84
2022/07/01 00:34:43;;;;;;;7.35;1.95;;;15.60;99.90;;;;;;5014292;28;20052;-84
2022/07/01 00:37:09;;;;;;;5.97;1.60;;;15.60;99.90;;;;;;5014361;28;20041;-84
2022/07/01 00:39:35;;;;;;;5.13;1.63;;;15.60;99.90;;;;;;5013981;28;20411;-84
2022/07/01 00:42:03;;;;;;;2.65;1.00;;;15.60;99.90;;;;;;4998059;28;20042;-84
2022/07/01 00:44:30;;;;;;;5.72;1.80;;;15.60;99.90;;;;;;4997687;28;20045;-84
2022/07/01 00:46:58;;;;;;;4.88;1.50;;;15.50;99.90;;;;;;5014435;28;20038;-84
2022/07/01 00:49:25;;;;;;;2.85;1.10;;;15.60;99.90;;;;;;5013902;28;20091;-83
2022/07/01 00:51:51;;;;;;;4.72;1.48;;;15.60;99.90;;;;;;4997688;28;20159;-84
2022/07/01 00:54:18;;;;;;;4.60;1.10;;;15.60;99.90;;;;;;5014100;28;20080;-84
2022/07/01 00:56:44;;;;;;;6.75;1.52;;;15.50;99.90;;;;;;5014102;28;20116;-84
2022/07/01 00:59:10;;;;;;;4.90;1.48;;;15.60;99.90;;;;;;5013467;28;20128;-84
2022/07/01 01:01:36;;;;;;;3.70;1.40;;;15.60;99.90;;;;;;5013970;28;20044;-83
2022/07/01 01:04:01;;;;;;;3.05;0.90;;;15.60;99.90;;;;;;5013818;28;20038;-83
2022/07/01 01:06:27;;;;;;;3.25;1.15;;;15.60;99.90;;;;;;4997535;28;20046;-84
2022/07/01 01:08:53;;;;;;;7.45;1.38;;;15.60;99.90;;;;;;5014110;28;20115;-84
2022/07/01 01:11:20;;;;;;;3.33;1.00;;;15.60;99.90;;;;;;5013554;28;20029;-83
2022/07/01 01:13:45;;;;;;;3.58;1.42;;;15.60;99.90;;;;;;5013815;28;20037;-83
2022/07/01 01:16:21;;;;;;;5.05;1.38;;;15.60;99.90;;;;;;4997509;28;20053;-83
2022/07/01 01:18:47;;;;;;;5.28;1.40;;;15.70;99.90;;;;;;4997404;28;20037;-83
2022/07/01 01:21:13;;;;;;;2.47;0.90;;;15.70;99.90;;;;;;5013440;28;20103;-83
2022/07/01 01:23:38;;;;;;;4.40;1.27;;;15.60;99.90;;;;;;4997688;28;20103;-83
2022/07/01 01:26:13;;;;;;;2.72;1.20;;;15.70;99.90;;;;;;5013724;28;20037;-83
2022/07/01 01:28:39;;;;;;;2.78;1.00;;;15.60;99.90;;;;;;5014095;28;20038;-83
2022/07/01 01:31:05;;;;;;;3.22;1.20;;;15.60;99.90;;;;;;5013671;28;20511;-83
2022/07/01 01:33:31;;;;;;;4.10;1.10;;;15.60;99.90;;;;;;5013650;28;20464;-83
2022/07/01 01:35:56;;;;;;;3.03;0.80;;;15.60;99.90;;;;;;5013629;28;20042;-83
2022/07/01 01:38:22;;;;;;;3.80;1.20;;;15.50;99.90;;;;;;5015317;28;20037;-83
2022/07/01 01:40:49;;;;;;;4.15;1.20;;;15.50;99.90;;;;;;5017303;28;20041;-83
2022/07/01 01:43:16;;;;;;;4.05;1.08;;;15.60;99.90;;;;;;5017406;28;20053;-83
2022/07/01 01:45:41;;;;;;;3.92;1.30;;;15.50;99.90;;;;;;5017303;28;20053;-83
2022/07/01 01:48:07;;;;;;;4.43;1.73;;;15.50;99.90;;;;;;5001140;28;20041;-83
2022/07/01 01:50:32;;;;;;;4.53;1.90;;;15.50;99.90;;;;;;5017176;28;20037;-83
2022/07/01 01:52:58;;;;;;;4.35;1.90;;;15.50;99.90;;;;;;5000956;28;20542;-83
2022/07/01 01:55:24;;;;;;;6.72;3.20;;;15.40;99.90;;;;;;5001058;28;20049;-83
2022/07/01 01:57:49;;;;;;;6.95;3.35;;;15.50;99.90;;;;;;5017420;28;20079;-83
2022/07/01 02:00:15;;;;;;;7.07;4.20;;;15.50;99.90;;;;;;5016992;28;20135;-83
2022/07/01 02:02:41;;;;;;;9.85;4.50;;;15.50;99.90;;;;;;5000753;28;20491;-83
2022/07/01 02:05:11;;;;;;;15.68;14.07;;;15.50;99.90;;;;;;5017208;28;20410;-83
2022/07/01 02:07:37;;;;;;;22.25;15.48;;;15.50;99.90;;;;;;5017267;28;20103;-83
2022/07/01 02:10:04;;;;;;;25.88;23.40;;;15.50;99.90;;;;;;5017043;28;20038;-83
2022/07/01 02:12:29;;;;;;;27.65;25.05;;;15.50;99.90;;;;;;5015453;28;20037;-83
2022/07/01 02:14:55;;;;;;;27.25;24.70;;;15.50;99.90;;;;;;5016586;28;20124;-83
2022/07/01 02:17:20;;;;;;;28.88;26.05;;;15.50;99.90;;;;;;5016873;28;20099;-83
2022/07/01 02:19:46;;;;;;;19.88;15.32;;;15.50;99.90;;;;;;5016753;28;20042;-84
2022/07/01 02:22:11;;;;;;;20.23;14.85;;;15.50;99.90;;;;;;5016693;28;20529;-84
2022/07/01 02:24:37;;;;;;;24.02;21.63;;;15.40;99.90;;;;;;5016815;28;20406;-83
2022/07/01 02:27:03;;;;;;;24.88;22.38;;;15.40;99.90;;;;;;5000423;28;20518;-83
2022/07/01 02:29:28;;;;;;;23.00;20.60;;;15.40;99.90;;;;;;5032684;28;20041;-83
2022/07/01 02:31:54;;;;;;;20.08;15.15;;;15.40;99.90;;;;;;5016553;28;20139;-83
2022/07/01 02:34:19;;;;;;;23.08;20.88;;;15.40;99.90;;;;;;5016553;28;20038;-83
2022/07/01 02:36:45;;;;;;;23.05;20.65;;;15.40;99.90;;;;;;5016547;28;20033;-83
2022/07/01 02:39:11;;;;;;;21.83;14.85;;;15.40;99.90;;;;;;5016487;28;20056;-83
2022/07/01 02:42:22;;;;;;;22.63;20.33;;;15.40;99.90;;;;;;5016342;28;20411;-83
2022/07/01 02:44:22;;;;;;;23.35;21.05;;;15.40;99.90;;;;;;5016150;28;20051;-83
2022/07/01 02:46:47;;;;;;;19.13;14.75;;;15.40;99.90;;;;;;5016358;28;20037;-83
2022/07/01 02:49:14;;;;;;;22.65;20.15;;;15.40;99.90;;;;;;5031811;28;20068;-83
2022/07/01 02:51:40;;;;;;;22.67;20.35;;;15.40;99.90;;;;;;5032720;28;20041;-84
2022/07/01 02:54:06;;;;;;;21.23;19.23;;;15.40;99.90;;;;;;5016220;28;20037;-83
2022/07/01 02:56:31;;;;;;;16.50;12.75;;;15.50;99.90;;;;;;5016311;28;20049;-83
2022/07/01 02:58:57;;;;;;;21.13;19.02;;;15.40;99.90;;;;;;5015698;28;20457;-83
2022/07/01 03:01:22;;;;;;;18.98;13.85;;;15.40;99.90;;;;;;5015849;28;20445;-83
2022/07/01 03:03:48;;;;;;;20.73;18.55;;;15.40;99.90;;;;;;5032356;28;20040;-84
2022/07/01 03:06:14;;;;;;;17.80;15.90;;;15.40;99.90;;;;;;5015822;28;20037;-83
2022/07/01 03:08:39;;;;;;;16.52;10.95;;;15.40;99.90;;;;;;5016121;28;20042;-83
2022/07/01 03:11:05;;;;;;;17.50;15.70;;;15.30;99.90;;;;;;5015517;28;20403;-83
2022/07/01 03:13:31;;;;;;;15.13;11.13;;;15.30;99.90;;;;;;5015790;28;20038;-83
2022/07/01 03:15:56;;;;;;;18.08;10.68;;;15.30;99.90;;;;;;5015714;28;20045;-83
2022/07/01 03:18:22;;;;;;;18.35;15.00;;;15.20;99.90;;;;;;4999281;28;20034;-83
2022/07/01 03:20:49;;;;;;;17.52;14.30;;;15.20;99.90;;;;;;5015193;28;20049;-83
2022/07/01 03:23:14;;;;;;;15.82;10.50;;;15.20;99.90;;;;;;4999520;28;20041;-83
2022/07/01 03:25:40;;;;;;;17.20;15.00;;;15.10;99.90;;;;;;5015545;28;20095;-83
2022/07/01 03:28:05;;;;;;;17.85;15.60;;;15.10;99.90;;;;;;5015586;28;20033;-83
2022/07/01 03:30:31;;;;;;;18.45;15.95;;;15.10;99.90;;;;;;5015537;28;20049;-83
2022/07/01 03:32:57;;;;;;;14.88;10.77;;;15.10;99.90;;;;;;5015065;28;20044;-84
2022/07/01 03:35:45;;;;;;;16.58;11.77;;;15.10;99.90;;;;;;5015366;28;20049;-83
2022/07/01 03:38:11;;;;;;;19.17;17.10;;;15.00;99.90;;;;;;4999054;28;20495;-83
2022/07/01 03:40:38;;;;;;;16.92;11.85;;;15.00;99.90;;;;;;4998741;28;20072;-83
2022/07/01 03:43:04;;;;;;;18.77;12.73;;;15.00;99.90;;;;;;5015261;28;20052;-84
2022/07/01 03:45:30;;;;;;;21.92;19.63;;;14.90;99.90;;;;;;5031557;28;20120;-83
2022/07/01 03:47:55;;;;;;;24.35;21.90;;;14.90;99.90;;;;;;4998829;28;20116;-83
2022/07/01 03:50:22;;;;;;;24.05;21.65;;;15.00;99.90;;;;;;4998694;28;20037;-83
2022/07/01 03:52:49;;;;;;;24.13;21.42;;;15.00;99.90;;;;;;5015018;28;20041;-84
2022/07/01 03:55:34;;;;;;;24.50;21.77;;;15.00;99.90;;;;;;5015105;28;20073;-84
2022/07/01 03:58:00;;;;;;;24.48;21.95;;;15.00;99.90;;;;;;5014622;28;20588;-83
2022/07/01 04:00:25;;;;;;;20.50;14.98;;;15.00;99.90;;;;;;5014500;28;20602;-83
2022/07/01 04:02:51;;;;;;;26.05;23.35;;;15.00;99.90;;;;;;5012951;28;20046;-83
2022/07/01 04:05:17;;;;;;;26.85;24.25;;;15.00;99.90;;;;;;5014371;28;20038;-83
2022/07/01 04:07:42;;;;;;;22.73;15.45;;;15.00;99.90;;;;;;5014643;28;20041;-83
2022/07/01 04:10:08;;;;;;;26.75;24.08;;;15.00;99.90;;;;;;4997486;28;20042;-83
2022/07/01 04:12:33;;;;;;;23.90;15.60;;;15.00;99.90;;;;;;5014091;28;20037;-83
2022/07/01 04:14:59;;;;;;;28.65;25.75;;;14.90;99.90;;;;;;5014766;28;20041;-83
2022/07/01 04:17:25;;;;;;;31.25;28.02;;;14.90;99.90;;;;;;5014111;28;20499;-83
2022/07/01 04:19:50;;;;;;;32.08;28.65;;;15.00;99.90;;;;;;4997600;28;20041;-82
2022/07/01 04:22:35;;;;;;;25.75;18.17;;;14.90;99.90;;;;;;5014338;28;20557;-83
2022/07/01 04:25:03;;;;;;;30.10;26.92;;;14.90;99.90;;;;;;5014195;28;20046;-83
2022/07/01 04:27:33;;;;;;;31.20;27.90;;;14.90;99.90;;;;;;4997650;28;20088;-84
2022/07/01 04:29:58;;;;;;;31.50;28.40;;;14.90;99.90;;;;;;5013853;28;20079;-83
2022/07/01 04:32:24;;;;;;;27.02;19.13;;;15.00;99.90;;;;;;5014006;28;20047;-83
2022/07/01 04:34:50;;;;;;;32.28;28.95;;;14.90;99.90;;;;;;4997538;28;20135;-83
2022/07/01 04:37:16;;;;;;;32.63;29.23;;;15.00;99.90;;;;;;4997582;28;20396;-83
2022/07/01 04:39:41;;;;;;;26.05;19.95;;;14.90;99.90;;;;;;5013742;28;20085;-83
2022/07/01 04:42:07;;;;;;;32.60;29.40;;;14.90;99.90;;;;;;5013703;28;20049;-83
2022/07/01 04:44:34;;;;;;;33.50;30.10;;;14.90;99.90;;;;;;5031361;28;20049;-83
2022/07/01 04:47:01;;;;;;;31.92;28.83;;;15.00;99.90;;;;;;5013976;28;20111;-83
2022/07/01 04:49:28;;;;;;;32.78;29.58;;;15.00;99.90;;;;;;4997245;28;20057;-84
2022/07/01 04:51:54;;;;;;;33.38;30.00;;;15.00;99.90;;;;;;5013300;28;20045;-84
2022/07/01 04:54:20;;;;;;;33.40;30.20;;;15.00;99.90;;;;;;4997276;28;20545;-84
2022/07/01 04:56:46;;;;;;;33.97;30.55;;;15.00;99.90;;;;;;5013440;28;20037;-84
2022/07/01 04:59:12;;;;;;;34.47;31.05;;;14.90;99.90;;;;;;4996233;28;20033;-84
2022/07/01 05:01:38;;;;;;;34.95;31.60;;;15.00;99.90;;;;;;5013534;28;20084;-84
2022/07/01 05:04:04;;;;;;;36.55;32.75;;;15.00;99.90;;;;;;5013430;28;20042;-84
2022/07/01 05:06:29;;;;;;;26.98;19.65;;;15.00;99.90;;;;;;5013445;28;20487;-84
2022/07/01 05:08:55;;;;;;;33.83;30.60;;;14.90;99.90;;;;;;5013296;28;20041;-84
2022/07/01 05:11:21;;;;;;;36.10;32.53;;;14.90;99.90;;;;;;5013074;28;20051;-84
2022/07/01 05:13:47;;;;;;;31.25;23.63;;;14.90;99.90;;;;;;5018261;28;20472;-84
2022/07/01 05:16:12;;;;;;;36.47;32.88;;;14.90;99.90;;;;;;5003553;28;20038;-84
2022/07/01 05:24:07;;;;;;;35.83;32.42;;;14.90;99.90;;;;;;5020106;28;20045;-83
2022/07/01 05:26:33;;;;;;;38.00;34.30;;;14.90;99.90;;;;;;5019786;28;20498;-84
2022/07/01 05:28:59;;;;;;;36.83;33.13;;;15.00;99.90;;;;;;5003480;28;20063;-84
2022/07/01 05:31:24;;;;;;;37.42;33.60;;;15.00;99.90;;;;;;5019549;28;20104;-84
2022/07/01 05:33:50;;;;;;;31.85;23.55;;;15.00;99.90;;;;;;5013953;28;20037;-83
2022/07/01 05:36:16;;;;;;;30.63;21.65;;;15.00;99.90;;;;;;5003472;28;20045;-84
2022/07/01 05:38:41;;;;;;;36.85;33.25;;;14.90;99.90;;;;;;5019536;28;20081;-84
2022/07/01 05:41:07;;;;;;;38.08;34.40;;;14.90;99.90;;;;;;5003114;28;20048;-83
2022/07/01 05:43:34;;;;;;;34.97;31.65;;;14.90;99.90;;;;;;5019357;28;20446;-84
2022/07/01 05:46:00;;;;;;;28.73;23.38;;;15.00;99.90;;;;;;5019463;28;20517;-83
2022/07/01 05:48:26;;;;;;;30.85;22.58;;;14.90;99.90;;;;;;5020011;28;20437;-83
2022/07/01 05:50:52;;;;;;;37.13;33.42;;;14.90;99.90;;;;;;5017925;28;20045;-83
2022/07/01 05:53:18;;;;;;;29.50;22.80;;;15.00;99.90;;;;;;5003167;28;20037;-83
2022/07/01 05:55:44;;;;;;;27.92;22.10;;;15.00;99.90;;;;;;5003544;28;20090;-83
2022/07/01 05:58:13;;;;;;;36.92;33.33;;;14.90;99.90;;;;;;5019829;28;20041;-84
2022/07/01 06:00:42;;;;;;;35.13;31.77;;;15.00;99.90;;;;;;5019735;28;20184;-84
2022/07/01 06:03:13;;;;;;;35.88;32.45;;;15.10;99.90;;;;;;5018481;28;20502;-83
2022/07/01 06:05:40;;;;;;;34.75;31.25;;;15.10;99.90;;;;;;5036407;28;20041;-84
2022/07/01 06:08:06;;;;;;;34.75;31.25;;;15.10;99.90;;;;;;5003584;28;20044;-84
2022/07/01 06:10:33;;;;;;;34.15;30.70;;;15.10;99.90;;;;;;5019395;28;20068;-83
2022/07/01 06:12:58;;;;;;;34.03;30.90;;;15.10;99.90;;;;;;5000658;28;20053;-84
2022/07/01 06:15:24;;;;;;;29.83;21.95;;;15.20;99.90;;;;;;5003343;28;20049;-84
2022/07/01 06:17:51;;;;;;;34.38;30.88;;;15.20;99.90;;;;;;5037238;28;20375;-83
2022/07/01 06:20:17;;;;;;;35.03;31.63;;;15.20;99.90;;;;;;5018682;28;20495;-84
2022/07/01 06:22:43;;;;;;;35.10;31.70;;;15.20;99.90;;;;;;5002913;28;20051;-84
2022/07/01 06:25:09;;;;;;;34.38;31.17;;;15.20;99.90;;;;;;5016767;28;20128;-84
2022/07/01 06:27:42;;;;;;;28.98;21.90;;;15.20;99.90;;;;;;5016170;28;20037;-84
2022/07/01 06:30:09;;;;;;;34.05;30.88;;;15.20;99.90;;;;;;5016005;28;20068;-83
2022/07/01 06:32:36;;;;;;;29.70;23.90;;;15.30;99.90;;;;;;5032359;28;20384;-83
2022/07/01 06:35:01;;;;;;;36.20;32.63;;;15.30;99.90;;;;;;5016331;28;20128;-83
2022/07/01 06:37:28;;;;;;;33.63;30.33;;;15.40;99.90;;;;;;5015963;28;20124;-84
2022/07/01 06:39:53;;;;;;;35.03;31.55;;;15.40;99.90;;;;;;5031934;28;20052;-84
2022/07/01 06:42:19;;;;;;;29.60;24.40;;;15.40;99.90;;;;;;4999434;28;20042;-84
2022/07/01 06:44:44;;;;;;;35.10;31.67;;;15.40;99.90;;;;;;5015872;28;20042;-84
2022/07/01 06:47:10;;;;;;;27.35;22.80;;;15.40;99.90;;;;;;5015208;28;20038;-83
2022/07/01 06:49:35;;;;;;;33.63;30.52;;;15.40;99.90;;;;;;4998973;28;20087;-83
2022/07/01 06:52:01;;;;;;;30.00;22.45;;;15.30;99.90;;;;;;5016098;28;20045;-84
2022/07/01 06:54:28;;;;;;;35.10;31.90;;;15.30;99.90;;;;;;5015413;28;20048;-84
2022/07/01 06:56:54;;;;;;;31.45;23.48;;;15.30;99.90;;;;;;5032292;28;20502;-84
2022/07/01 06:59:19;;;;;;;34.92;31.52;;;15.30;99.90;;;;;;4998956;28;20069;-84
2022/07/01 07:01:45;;;;;;;26.92;21.63;;;15.30;99.90;;;;;;4999434;28;20042;-84
2022/07/01 07:04:10;;;;;;;35.22;31.77;;;15.30;99.90;;;;;;5015435;28;20049;-84
2022/07/01 07:06:36;;;;;;;28.48;23.27;;;15.30;99.90;;;;;;5015360;28;20049;-84
2022/07/01 07:09:01;;;;;;;36.83;33.38;;;15.30;99.90;;;;;;4998660;28;20501;-84
2022/07/01 07:11:27;;;;;;;36.65;33.05;;;15.30;99.90;;;;;;5014754;28;20052;-84
2022/07/01 07:13:53;;;;;;;31.80;24.40;;;15.30;99.90;;;;;;5015414;28;20044;-84
2022/07/01 07:16:20;;;;;;;35.85;32.25;;;15.30;99.90;;;;;;4999303;28;20067;-84
2022/07/01 07:18:47;;;;;;;32.88;24.42;;;15.30;99.90;;;;;;5033038;28;20046;-84
2022/07/01 07:21:12;;;;;;;37.90;34.20;;;15.30;99.90;;;;;;5030964;28;20083;-84
2022/07/01 07:23:38;;;;;;;37.05;33.35;;;15.30;99.90;;;;;;5031036;28;20449;-84
2022/07/01 07:26:04;;;;;;;30.48;25.02;;;15.40;99.90;;;;;;5015127;28;20047;-83
2022/07/01 07:28:29;;;;;;;36.03;32.45;;;15.40;99.90;;;;;;5015404;28;20132;-82
2022/07/01 07:30:55;;;;;;;35.20;31.80;;;15.50;99.90;;;;;;4998603;28;20513;-83
2022/07/01 07:33:20;;;;;;;30.77;23.23;;;15.50;99.90;;;;;;5015162;28;20046;-83
2022/07/01 07:35:46;;;;;;;35.60;32.10;;;15.50;99.90;;;;;;4998366;28;20041;-83
2022/07/01 07:38:12;;;;;;;34.75;31.45;;;15.50;99.90;;;;;;5015099;28;20499;-82
2022/07/01 07:40:38;;;;;;;31.55;25.58;;;15.60;99.90;;;;;;4998104;28;20117;-82
2022/07/01 07:43:05;;;;;;;35.45;31.95;;;15.60;99.90;;;;;;5014883;28;20088;-82
2022/07/01 07:45:31;;;;;;;32.65;29.35;;;15.70;99.90;;;;;;4998465;28;20425;-82
2022/07/01 07:47:57;;;;;;;33.00;29.70;;;15.80;99.90;;;;;;4998480;28;20525;-83
2022/07/01 07:50:23;;;;;;;32.22;29.10;;;16.00;99.90;;;;;;5014618;28;20098;-83
2022/07/01 07:52:49;;;;;;;30.60;23.52;;;16.00;99.90;;;;;;5014335;28;20069;-83
2022/07/01 07:55:15;;;;;;;29.50;24.30;;;16.00;99.90;;;;;;5014675;28;20508;-83
2022/07/01 07:57:41;;;;;;;30.20;24.02;;;16.00;99.90;;;;;;5014444;28;20051;-83
2022/07/01 08:00:10;;;;;;;30.83;27.85;;;16.00;99.90;;;;;;4997869;28;20120;-84
2022/07/01 08:02:36;;;;;;;30.90;27.70;;;16.10;99.90;;;;;;4991570;28;20153;-83
2022/07/01 08:05:01;;;;;;;33.05;29.45;;;16.10;99.90;;;;;;5009995;28;20132;-84
2022/07/01 08:07:28;;;;;;;27.55;21.95;;;16.20;99.90;;;;;;5035219;28;20033;-83
2022/07/01 08:09:53;;;;;;;30.77;27.67;;;16.20;99.90;;;;;;5000173;28;20042;-83
2022/07/01 08:12:19;;;;;;;30.15;27.15;;;16.30;99.90;;;;;;5034915;28;20052;-83
2022/07/01 08:14:45;;;;;;;30.48;27.52;;;16.30;99.90;;;;;;4994225;28;20038;-83
2022/07/01 08:17:10;;;;;;;27.75;23.05;;;16.40;99.90;;;;;;5011199;28;20040;-84
2022/07/01 08:19:36;;;;;;;28.85;25.92;;;16.40;99.90;;;;;;4994434;28;20064;-83
2022/07/01 08:22:01;;;;;;;27.70;24.73;;;16.40;99.90;;;;;;5016385;28;20111;-84
2022/07/01 08:24:27;;;;;;;26.90;24.13;;;16.50;99.90;;;;;;5017468;28;20037;-84
2022/07/01 08:26:53;;;;;;;25.92;23.17;;;16.60;99.90;;;;;;5018442;28;20050;-84
2022/07/01 08:29:18;;;;;;;24.23;19.60;;;16.70;99.90;;;;;;5016869;28;20503;-84
2022/07/01 08:31:44;;;;;;;26.50;23.75;;;16.70;99.90;;;;;;5037314;28;20052;-84
2022/07/01 08:34:09;;;;;;;26.85;24.15;;;16.90;99.90;;;;;;5013211;28;20041;-84
2022/07/01 08:36:35;;;;;;;23.58;19.75;;;17.00;99.90;;;;;;5011951;28;20052;-84
2022/07/01 08:39:02;;;;;;;23.35;20.77;;;17.00;99.90;;;;;;5011858;28;20042;-84
2022/07/01 08:41:27;;;;;;;25.95;18.17;;;17.10;99.90;;;;;;5018400;28;20037;-84
2022/07/01 08:43:53;;;;;;;24.05;21.25;;;17.10;99.90;;;;;;4992315;28;20037;-85
2022/07/01 08:46:19;;;;;;;23.35;20.52;;;17.10;99.90;;;;;;5009312;28;20475;-84
2022/07/01 08:48:45;;;;;;;21.33;18.77;;;17.20;99.90;;;;;;4997061;28;20074;-85
2022/07/01 08:51:11;;;;;;;23.05;19.75;;;17.30;99.90;;;;;;5018600;28;20812;-85
2022/07/01 08:53:37;;;;;;;23.05;20.45;;;17.30;99.90;;;;;;5026296;28;20133;-84
2022/07/01 08:58:51;;;;;;;19.42;16.48;;;17.50;99.90;;;;;;5017492;28;20136;-84
2022/07/01 09:01:21;;;;;;;20.67;17.88;;;17.60;99.90;;;;;;5029243;28;20169;-85
2022/07/01 09:03:48;;;;;;;21.48;17.75;;;17.70;99.90;;;;;;4997865;28;20052;-84
2022/07/01 09:06:16;;;;;;;19.88;16.58;;;17.80;99.90;;;;;;5030578;28;20514;-84
2022/07/01 09:08:43;;;;;;;21.58;16.23;;;17.90;99.90;;;;;;5030289;28;20426;-85
2022/07/01 09:11:27;;;;;;;21.83;17.13;;;17.90;99.90;;;;;;5031246;28;20503;-84
2022/07/01 09:14:07;;;;;;;18.75;14.75;;;17.90;99.90;;;;;;5013781;28;20052;-84
2022/07/01 09:16:41;;;;;;;19.30;15.63;;;17.90;99.90;;;;;;4997605;28;20096;-84
2022/07/01 09:19:07;;;;;;;16.15;10.93;;;17.80;99.90;;;;;;4995065;28;20052;-84
2022/07/01 09:21:33;;;;;;;18.10;13.35;;;17.80;99.90;;;;;;5029641;28;20071;-84
2022/07/01 09:24:03;;;;;;;17.00;12.38;;;17.70;99.90;;;;;;5013266;28;20047;-84
2022/07/01 09:26:29;;;;;;;19.92;14.73;;;17.80;99.90;;;;;;5013104;28;20034;-84
2022/07/01 09:28:56;;;;;;;17.45;12.52;;;17.80;99.90;;;;;;5013524;28;20041;-84
2022/07/01 09:31:32;;;;;;;18.17;13.65;;;17.80;99.90;;;;;;5013202;28;20048;-83
2022/07/01 09:34:10;;;;;;;17.33;13.35;;;17.80;99.90;;;;;;5013575;28;20037;-84
2022/07/01 09:36:40;;;;;;;18.65;15.07;;;17.80;99.90;;;;;;4996816;28;20080;-84
2022/07/01 09:39:06;;;;;;;16.55;13.10;;;17.80;99.90;;;;;;4996415;28;20045;-83
2022/07/01 09:41:36;;;;;;;18.90;14.73;;;17.80;99.90;;;;;;5013148;28;20527;-84
2022/07/01 09:44:09;;;;;;;17.05;12.13;;;17.80;99.90;;;;;;5013303;28;20415;-83
2022/07/01 09:46:35;;;;;;;;;;;17.80;99.90;;;;;;4997181;28;20041;-83
2022/07/01 09:49:00;;;;;;;14.30;7.97;;;17.70;99.90;;;;;;5012803;28;20334;-83
2022/07/01 09:51:28;;;;;;;13.80;9.63;;;17.60;99.90;;;;;;5012633;28;20037;-83
2022/07/01 09:53:54;;;;;;;13.25;8.20;;;17.60;99.90;;;;;;5012974;28;20045;-83
2022/07/01 09:56:20;;;;;;;18.50;10.95;;;17.60;99.90;;;;;;5013094;28;20491;-83
2022/07/01 09:58:45;;;;;;;15.43;9.88;;;17.70;99.90;;;;;;5013300;28;20045;-83
2022/07/01 10:01:14;;;;;;;13.65;9.38;;;17.80;99.90;;;;;;5016382;28;20041;-84
2022/07/01 10:03:40;;;;;;;13.80;9.80;;;18.10;99.90;;;;;;5016571;28;20124;-83
2022/07/01 10:06:30;;;;;;;14.02;9.50;;;18.30;99.90;;;;;;5016259;28;20060;-84
2022/07/01 10:09:33;;;;;;;17.08;11.00;;;18.40;99.90;;;;;;5016407;28;20069;-84
2022/07/01 10:12:11;;;;;;;13.90;7.65;;;18.30;99.90;;;;;;4999819;28;20033;-83
2022/07/01 10:14:39;;;;;;;13.98;10.07;;;18.20;99.90;;;;;;5016374;28;20048;-84
2022/07/01 10:17:06;;;;;;;14.80;10.07;;;18.20;99.90;;;;;;5000038;28;20037;-84
2022/07/01 10:19:33;;;;;;;12.60;7.88;;;18.40;99.90;;;;;;5016098;28;20167;-83
2022/07/01 10:22:27;;;;;;;11.77;7.82;;;18.50;99.90;;;;;;5015985;28;20041;-84
2022/07/01 10:24:52;;;;;;;13.48;8.15;;;18.60;99.90;;;;;;4995744;28;20054;-83
2022/07/01 10:27:25;;;;;;;11.80;7.80;;;18.60;99.90;;;;;;5000089;28;20151;-84
2022/07/01 10:30:13;;;;;;;12.32;7.82;;;18.70;99.90;;;;;;5016196;28;20073;-84
2022/07/01 10:32:59;;;;;;;12.57;7.60;;;18.70;99.90;;;;;;5033889;28;20041;-83
2022/07/01 10:35:25;;;;;;;11.23;6.80;;;18.90;99.90;;;;;;5029520;28;20137;-84
2022/07/01 10:38:01;;;;;;;12.57;7.43;;;19.00;99.90;;;;;;4998706;28;20041;-83
2022/07/01 10:40:48;;;;;;;11.13;6.95;;;18.90;99.90;;;;;;5011558;28;20478;-83
2022/07/01 10:43:35;;;;;;;11.48;7.30;;;18.90;99.90;;;;;;4994026;28;20087;-83
2022/07/01 10:46:01;;;;;;;10.73;6.95;;;18.90;99.90;;;;;;4997681;28;20528;-83
2022/07/01 10:48:31;;;;;;;8.95;5.20;;;18.80;99.90;;;;;;5028670;28;20065;-83
2022/07/01 10:50:56;;;;;;;10.57;5.10;;;18.80;99.90;;;;;;5013187;28;20092;-83
2022/07/01 10:53:22;;;;;;;10.82;5.93;;;18.90;99.90;;;;;;5011929;28;20088;-84
2022/07/01 10:55:50;;;;;;;10.63;4.97;;;19.00;99.90;;;;;;4994687;28;20041;-83
2022/07/01 10:58:18;;;;;;;10.55;4.93;;;19.20;99.90;;;;;;5013572;28;20045;-83
2022/07/01 11:00:46;;;;;;;10.40;4.90;;;19.40;99.90;;;;;;5013139;28;20470;-83
2022/07/01 11:03:16;;;;;;;7.78;4.18;;;19.40;99.90;;;;;;5012842;28;20044;-84
2022/07/01 11:05:44;;;;;;;9.40;3.80;;;19.40;99.90;;;;;;4996523;28;20555;-84
2022/07/01 11:08:11;;;;;;;9.90;4.68;;;19.50;99.90;;;;;;5008861;28;20137;-84
2022/07/01 11:10:38;;;;;;;8.23;3.67;;;19.60;99.90;;;;;;5012605;28;20399;-84
2022/07/01 11:13:03;;;;;;;9.23;4.05;;;19.60;99.90;;;;;;4997105;28;20042;-84
2022/07/01 11:15:30;;;;;;;9.55;3.97;;;19.70;99.90;;;;;;4993822;28;20045;-84
2022/07/01 11:17:57;;;;;;;9.40;4.85;;;19.80;99.90;;;;;;5014614;28;20033;-84
2022/07/01 11:20:25;;;;;;;9.27;4.53;;;19.90;99.90;;;;;;5029774;28;20099;-84
2022/07/01 11:22:51;;;;;;;9.10;4.40;;;19.90;99.90;;;;;;5011536;28;20041;-84
2022/07/01 11:25:19;;;;;;;9.65;5.32;;;19.90;99.90;;;;;;5013236;28;20111;-84
2022/07/01 11:27:46;;;;;;;10.02;5.63;;;19.90;99.90;;;;;;4993913;28;20399;-83
2022/07/01 11:30:13;;;;;;;12.65;5.90;;;20.00;99.90;;;;;;5013982;28;20442;-84
2022/07/01 11:32:43;;;;;;;9.68;4.95;;;20.20;99.90;;;;;;5012203;28;20056;-83
2022/07/01 11:40:53;;;;;;;10.98;4.55;;;20.10;99.90;;;;;;5013214;28;20053;-83
2022/07/01 11:43:22;;;;;;;11.52;4.82;;;20.20;99.90;;;;;;5013781;28;20499;-83
2022/07/01 11:45:47;;;;;;;10.93;4.32;;;20.40;99.90;;;;;;5012845;28;20503;-83
2022/07/01 11:48:31;;;;;;;11.50;4.57;;;20.60;99.90;;;;;;5013643;28;20065;-85
2022/07/01 11:50:58;;;;;;;10.30;4.57;;;20.60;99.90;;;;;;5012343;28;20091;-84
2022/07/01 11:53:24;;;;;;;9.57;3.88;;;20.60;99.90;;;;;;4994827;28;20037;-84
2022/07/01 11:55:50;;;;;;;10.45;3.72;;;20.60;99.90;;;;;;4994400;28;20045;-84
2022/07/01 11:58:15;;;;;;;8.95;3.65;;;20.50;99.90;;;;;;5011073;28;20075;-84
2022/07/01 12:00:41;;;;;;;8.55;3.00;;;20.60;99.90;;;;;;4996846;28;20049;-84
2022/07/01 12:03:07;;;;;;;9.40;3.50;;;20.60;99.90;;;;;;5007774;28;20045;-84
2022/07/01 12:05:34;;;;;;;10.02;2.88;;;20.50;99.90;;;;;;4995322;28;20434;-85
2022/07/01 12:08:00;;;;;;;8.63;3.22;;;20.40;99.90;;;;;;5012307;28;20034;-85
2022/07/01 12:10:27;;;;;;;9.02;3.40;;;20.40;99.90;;;;;;5013395;28;20040;-85
2022/07/01 12:12:53;;;;;;;9.18;3.33;;;20.30;99.90;;;;;;5031081;28;20076;-85
2022/07/01 12:15:20;;;;;;;8.32;2.83;;;20.10;99.90;;;;;;5029142;28;20069;-85
2022/07/01 12:17:45;;;;;;;10.52;3.30;;;20.00;99.90;;;;;;5031014;28;20037;-84
2022/07/01 12:20:11;;;;;;;9.93;2.60;;;19.90;99.90;;;;;;5011495;28;20095;-84
2022/07/01 12:22:37;;;;;;;10.30;2.42;;;19.80;99.90;;;;;;5010883;28;20072;-84
2022/07/01 12:25:11;;;;;;;6.63;1.98;;;19.80;99.90;;;;;;4996267;28;20045;-84
2022/07/01 12:27:40;;;;;;;5.88;1.42;;;19.90;99.90;;;;;;5009470;28;20029;-84
2022/07/01 12:30:08;;;;;;;7.75;1.85;;;20.20;99.90;;;;;;5012782;28;20037;-84
2022/07/01 12:32:37;;;;;;;7.10;1.83;;;20.40;99.90;;;;;;4996752;28;20522;-84
2022/07/01 12:35:33;;;;;;;6.30;1.60;;;20.60;99.90;;;;;;5013044;28;20056;-84
2022/07/01 12:37:56;;;;;;;8.90;2.17;;;20.80;99.90;;;;;;5027861;28;20418;-83
2022/07/01 12:40:29;;;;;;;8.35;2.08;;;20.90;99.90;;;;;;5012688;28;20045;-83
2022/07/01 12:42:59;;;;;;;10.35;2.35;;;21.00;99.90;;;;;;5012018;28;20056;-84
2022/07/01 12:45:26;;;;;;;9.13;1.95;;;21.00;99.90;;;;;;5012528;28;20046;-83
2022/07/01 12:47:54;;;;;;;8.82;2.17;;;20.90;99.90;;;;;;5012602;28;20554;-83